sensor_id;sensor_type;location;lat;lon;timestamp;pressure;altitude;pressure_sealevel;temperature;humidity
55373;BME280;70018;47.838;16.490;2023-09-12T00:00:06;98989.72;;;14.88;59.06
55373;BME280;70018;47.838;16.490;2023-09-12T00:02:32;98990.59;;;14.85;59.11
55373;BME280;70018;47.838;16.490;2023-09-12T00:04:59;98992.69;;;14.81;59.48
55373;BME280;70018;47.838;16.490;2023-09-12T00:07:26;98987.16;;;14.77;59.50
55373;BME280;70018;47.838;16.490;2023-09-12T00:09:52;98988.41;;;14.76;59.41
55373;BME280;70018;47.838;16.490;2023-09-12T00:12:22;98988.81;;;14.75;59.68
55373;BME280;70018;47.838;16.490;2023-09-12T00:14:50;98985.22;;;14.74;59.45
55373;BME280;70018;47.838;16.490;2023-09-12T00:17:17;98990.06;;;14.74;59.67
55373;BME280;70018;47.838;16.490;2023-09-12T00:19:44;98996.50;;;14.71;59.70
55373;BME280;70018;47.838;16.490;2023-09-12T00:22:11;98987.78;;;14.69;59.88
55373;BME280;70018;47.838;16.490;2023-09-12T00:24:37;98994.22;;;14.66;59.97
55373;BME280;70018;47.838;16.490;2023-09-12T00:27:05;98987.13;;;14.61;60.23
55373;BME280;70018;47.838;16.490;2023-09-12T00:29:32;98990.34;;;14.60;60.18
55373;BME280;70018;47.838;16.490;2023-09-12T00:31:59;98987.19;;;14.58;60.28
55373;BME280;70018;47.838;16.490;2023-09-12T00:34:25;98980.47;;;14.55;60.25
55373;BME280;70018;47.838;16.490;2023-09-12T00:36:52;98986.50;;;14.54;60.24
55373;BME280;70018;47.838;16.490;2023-09-12T00:39:19;98991.38;;;14.50;60.41
55373;BME280;70018;47.838;16.490;2023-09-12T00:41:45;98986.66;;;14.47;60.64
55373;BME280;70018;47.838;16.490;2023-09-12T00:44:12;98980.34;;;14.43;60.59
55373;BME280;70018;47.838;16.490;2023-09-12T00:46:39;98986.78;;;14.40;60.54
55373;BME280;70018;47.838;16.490;2023-09-12T00:49:07;98986.44;;;14.38;61.12
55373;BME280;70018;47.838;16.490;2023-09-12T00:51:35;98991.28;;;14.34;60.85
55373;BME280;70018;47.838;16.490;2023-09-12T00:54:02;98987.34;;;14.31;61.23
55373;BME280;70018;47.838;16.490;2023-09-12T00:56:29;98986.22;;;14.28;61.14
55373;BME280;70018;47.838;16.490;2023-09-12T00:58:56;98983.13;;;14.23;61.29
55373;BME280;70018;47.838;16.490;2023-09-12T01:01:23;98983.22;;;14.19;61.42
55373;BME280;70018;47.838;16.490;2023-09-12T01:03:50;98981.28;;;14.16;61.54
55373;BME280;70018;47.838;16.490;2023-09-12T01:06:21;98980.94;;;14.14;61.61
55373;BME280;70018;47.838;16.490;2023-09-12T01:08:49;98984.94;;;14.13;61.88
55373;BME280;70018;47.838;16.490;2023-09-12T01:11:17;98983.34;;;14.12;61.85
55373;BME280;70018;47.838;16.490;2023-09-12T01:13:43;98974.63;;;14.10;61.74
55373;BME280;70018;47.838;16.490;2023-09-12T01:16:10;98983.84;;;14.07;62.17
55373;BME280;70018;47.838;16.490;2023-09-12T01:18:37;98981.84;;;14.08;62.10
55373;BME280;70018;47.838;16.490;2023-09-12T01:21:33;98976.25;;;14.08;62.11
55373;BME280;70018;47.838;16.490;2023-09-12T01:29:33;98992.66;;;14.06;62.39
55373;BME280;70018;47.838;16.490;2023-09-12T01:32:03;98989.91;;;14.02;62.55
55373;BME280;70018;47.838;16.490;2023-09-12T01:34:29;98993.59;;;13.99;62.69
55373;BME280;70018;47.838;16.490;2023-09-12T01:36:56;98996.78;;;13.98;62.64
55373;BME280;70018;47.838;16.490;2023-09-12T01:39:23;99001.22;;;13.95;62.63
55373;BME280;70018;47.838;16.490;2023-09-12T01:41:52;98996.13;;;13.90;63.00
55373;BME280;70018;47.838;16.490;2023-09-12T01:44:19;99001.81;;;13.87;63.10
55373;BME280;70018;47.838;16.490;2023-09-12T01:46:49;98995.13;;;13.81;63.17
55373;BME280;70018;47.838;16.490;2023-09-12T01:49:21;99002.34;;;13.78;63.35
55373;BME280;70018;47.838;16.490;2023-09-12T01:51:48;99003.19;;;13.75;63.12
55373;BME280;70018;47.838;16.490;2023-09-12T01:54:16;99011.66;;;13.72;63.39
55373;BME280;70018;47.838;16.490;2023-09-12T01:56:43;99003.34;;;13.68;63.52
55373;BME280;70018;47.838;16.490;2023-09-12T01:59:11;99007.34;;;13.67;63.72
55373;BME280;70018;47.838;16.490;2023-09-12T02:01:37;99009.75;;;13.65;63.71
55373;BME280;70018;47.838;16.490;2023-09-12T02:04:04;99011.00;;;13.64;64.01
55373;BME280;70018;47.838;16.490;2023-09-12T02:06:35;99009.03;;;13.61;63.78
55373;BME280;70018;47.838;16.490;2023-09-12T02:09:02;99005.91;;;13.59;63.92
55373;BME280;70018;47.838;16.490;2023-09-12T02:11:29;99007.53;;;13.56;63.96
55373;BME280;70018;47.838;16.490;2023-09-12T02:13:55;99001.16;;;13.56;64.07
55373;BME280;70018;47.838;16.490;2023-09-12T02:16:22;99011.16;;;13.53;64.44
55373;BME280;70018;47.838;16.490;2023-09-12T02:18:49;99009.22;;;13.50;64.44
55373;BME280;70018;47.838;16.490;2023-09-12T02:21:15;99005.28;;;13.48;64.31
55373;BME280;70018;47.838;16.490;2023-09-12T02:23:42;99016.03;;;13.46;64.46
55373;BME280;70018;47.838;16.490;2023-09-12T02:26:09;99012.53;;;13.42;64.73
55373;BME280;70018;47.838;16.490;2023-09-12T02:28:35;99025.31;;;13.39;64.69
55373;BME280;70018;47.838;16.490;2023-09-12T02:31:02;99011.44;;;13.36;65.02
55373;BME280;70018;47.838;16.490;2023-09-12T02:33:28;99021.44;;;13.33;65.08
55373;BME280;70018;47.838;16.490;2023-09-12T02:35:55;99013.91;;;13.30;65.06
55373;BME280;70018;47.838;16.490;2023-09-12T02:38:22;99014.34;;;13.29;65.15
55373;BME280;70018;47.838;16.490;2023-09-12T02:40:48;99015.97;;;13.26;65.21
55373;BME280;70018;47.838;16.490;2023-09-12T02:43:15;99022.38;;;13.23;65.26
55373;BME280;70018;47.838;16.490;2023-09-12T02:45:42;99014.47;;;13.22;65.41
55373;BME280;70018;47.838;16.490;2023-09-12T02:48:09;99014.47;;;13.22;65.53
55373;BME280;70018;47.838;16.490;2023-09-12T02:50:35;99014.88;;;13.20;65.32
55373;BME280;70018;47.838;16.490;2023-09-12T02:53:03;99015.31;;;13.19;65.78
55373;BME280;70018;47.838;16.490;2023-09-12T02:55:29;99020.88;;;13.19;65.62
55373;BME280;70018;47.838;16.490;2023-09-12T02:57:56;99016.09;;;13.19;65.67
55373;BME280;70018;47.838;16.490;2023-09-12T03:00:22;99016.09;;;13.19;65.91
55373;BME280;70018;47.838;16.490;2023-09-12T03:02:49;99019.28;;;13.18;65.69
55373;BME280;70018;47.838;16.490;2023-09-12T03:05:16;99016.13;;;13.16;66.00
55373;BME280;70018;47.838;16.490;2023-09-12T03:07:43;99022.94;;;13.15;66.13
55373;BME280;70018;47.838;16.490;2023-09-12T03:10:09;99026.50;;;13.15;65.99
55373;BME280;70018;47.838;16.490;2023-09-12T03:12:36;99022.56;;;13.13;66.01
55373;BME280;70018;47.838;16.490;2023-09-12T03:15:04;99024.97;;;13.11;66.07
55373;BME280;70018;47.838;16.490;2023-09-12T03:17:33;99024.63;;;13.09;66.07
55373;BME280;70018;47.838;16.490;2023-09-12T03:20:00;99022.66;;;13.06;66.22
55373;BME280;70018;47.838;16.490;2023-09-12T03:22:27;99027.88;;;13.03;66.32
55373;BME280;70018;47.838;16.490;2023-09-12T03:24:55;99033.09;;;13.01;66.31
55373;BME280;70018;47.838;16.490;2023-09-12T03:27:22;99037.88;;;13.01;66.52
55373;BME280;70018;47.838;16.490;2023-09-12T03:29:48;99035.13;;;12.97;66.33
55373;BME280;70018;47.838;16.490;2023-09-12T03:32:15;99033.19;;;12.94;66.51
55373;BME280;70018;47.838;16.490;2023-09-12T03:34:41;99039.59;;;12.91;66.56
55373;BME280;70018;47.838;16.490;2023-09-12T03:37:08;99036.06;;;12.87;66.96
55373;BME280;70018;47.838;16.490;2023-09-12T03:39:35;99037.28;;;12.86;66.68
55373;BME280;70018;47.838;16.490;2023-09-12T03:42:02;99043.69;;;12.83;67.03
55373;BME280;70018;47.838;16.490;2023-09-12T03:44:28;99039.34;;;12.82;66.96
55373;BME280;70018;47.838;16.490;2023-09-12T03:46:55;99039.75;;;12.81;66.87
55373;BME280;70018;47.838;16.490;2023-09-12T03:49:22;99035.81;;;12.78;66.93
55373;BME280;70018;47.838;16.490;2023-09-12T03:51:48;99036.22;;;12.77;67.16
55373;BME280;70018;47.838;16.490;2023-09-12T03:54:15;99045.41;;;12.74;67.21
55373;BME280;70018;47.838;16.490;2023-09-12T03:56:42;99042.28;;;12.72;67.31
55373;BME280;70018;47.838;16.490;2023-09-12T03:59:11;99047.03;;;12.71;67.21
55373;BME280;70018;47.838;16.490;2023-09-12T04:01:38;99042.31;;;12.68;67.45
55373;BME280;70018;47.838;16.490;2023-09-12T04:04:05;99047.88;;;12.68;67.40
55373;BME280;70018;47.838;16.490;2023-09-12T04:06:31;99036.38;;;12.66;67.43
55373;BME280;70018;47.838;16.490;2023-09-12T04:08:58;99039.16;;;12.66;67.54
55373;BME280;70018;47.838;16.490;2023-09-12T04:11:25;99042.38;;;12.65;67.64
55373;BME280;70018;47.838;16.490;2023-09-12T04:14:11;99037.19;;;12.63;67.38
55373;BME280;70018;47.838;16.490;2023-09-12T04:16:37;99038.03;;;12.60;67.62
55373;BME280;70018;47.838;16.490;2023-09-12T04:19:04;99035.25;;;12.60;67.71
55373;BME280;70018;47.838;16.490;2023-09-12T04:21:31;99040.81;;;12.60;67.72
55373;BME280;70018;47.838;16.490;2023-09-12T04:23:58;99032.88;;;12.59;67.98
55373;BME280;70018;47.838;16.490;2023-09-12T04:26:24;99034.47;;;12.60;67.87
55373;BME280;70018;47.838;16.490;2023-09-12T04:28:51;99030.91;;;12.59;67.80
55373;BME280;70018;47.838;16.490;2023-09-12T04:31:18;99032.47;;;12.60;68.03
55373;BME280;70018;47.838;16.490;2023-09-12T04:33:44;99042.03;;;12.59;68.19
55373;BME280;70018;47.838;16.490;2023-09-12T04:36:11;99042.03;;;12.59;67.89
55373;BME280;70018;47.838;16.490;2023-09-12T04:38:38;99032.09;;;12.58;68.20
55373;BME280;70018;47.838;16.490;2023-09-12T04:41:04;99038.47;;;12.59;68.08
55373;BME280;70018;47.838;16.490;2023-09-12T04:43:32;99043.22;;;12.58;68.15
55373;BME280;70018;47.838;16.490;2023-09-12T04:45:59;99043.22;;;12.58;68.20
55373;BME280;70018;47.838;16.490;2023-09-12T04:48:26;99047.25;;;12.57;68.35
55373;BME280;70018;47.838;16.490;2023-09-12T04:50:53;99052.81;;;12.57;68.04
55373;BME280;70018;47.838;16.490;2023-09-12T04:53:20;99051.22;;;12.56;68.62
55373;BME280;70018;47.838;16.490;2023-09-12T04:55:46;99045.22;;;12.58;68.31
55373;BME280;70018;47.838;16.490;2023-09-12T04:58:13;99050.38;;;12.59;68.25
55373;BME280;70018;47.838;16.490;2023-09-12T05:00:39;99050.75;;;12.61;68.28
55373;BME280;70018;47.838;16.490;2023-09-12T05:03:06;99058.28;;;12.64;68.10
55373;BME280;70018;47.838;16.490;2023-09-12T05:05:34;99044.72;;;12.66;68.31
55373;BME280;70018;47.838;16.490;2023-09-12T05:08:03;99055.84;;;12.70;68.28
55373;BME280;70018;47.838;16.490;2023-09-12T05:10:30;99061.34;;;12.73;68.01
55373;BME280;70018;47.838;16.490;2023-09-12T05:12:57;99060.50;;;12.76;68.27
55373;BME280;70018;47.838;16.490;2023-09-12T05:15:24;99060.84;;;12.82;67.66
55373;BME280;70018;47.838;16.490;2023-09-12T05:17:50;99067.94;;;12.86;68.06
55373;BME280;70018;47.838;16.490;2023-09-12T05:20:17;99055.53;;;12.91;67.80
55373;BME280;70018;47.838;16.490;2023-09-12T05:22:43;99061.78;;;12.98;67.97
55373;BME280;70018;47.838;16.490;2023-09-12T05:25:10;99056.09;;;13.06;67.83
55373;BME280;70018;47.838;16.490;2023-09-12T05:27:37;99065.59;;;13.12;67.78
55373;BME280;70018;47.838;16.490;2023-09-12T05:30:04;99061.09;;;13.18;67.63
55373;BME280;70018;47.838;16.490;2023-09-12T05:32:31;99062.22;;;13.24;67.56
55373;BME280;70018;47.838;16.490;2023-09-12T05:34:58;99062.09;;;13.31;67.44
55373;BME280;70018;47.838;16.490;2023-09-12T05:37:40;99060.78;;;13.39;67.28
55373;BME280;70018;47.838;16.490;2023-09-12T05:40:07;99073.00;;;13.48;67.23
55373;BME280;70018;47.838;16.490;2023-09-12T05:42:36;99073.25;;;13.57;67.04
55373;BME280;70018;47.838;16.490;2023-09-12T05:45:03;99071.50;;;13.67;67.10
55373;BME280;70018;47.838;16.490;2023-09-12T05:47:30;99071.38;;;13.74;67.03
55373;BME280;70018;47.838;16.490;2023-09-12T05:49:56;99072.81;;;13.82;66.91
55373;BME280;70018;47.838;16.490;2023-09-12T05:52:25;99072.28;;;13.91;66.89
55373;BME280;70018;47.838;16.490;2023-09-12T05:54:52;99078.53;;;13.98;66.71
55373;BME280;70018;47.838;16.490;2023-09-12T05:57:18;99075.94;;;14.07;66.66
55373;BME280;70018;47.838;16.490;2023-09-12T05:59:45;99083.00;;;14.15;66.54
55373;BME280;70018;47.838;16.490;2023-09-12T06:02:12;99077.25;;;14.22;66.19
55373;BME280;70018;47.838;16.490;2023-09-12T06:04:38;99088.69;;;14.32;66.21
55373;BME280;70018;47.838;16.490;2023-09-12T06:07:05;99087.31;;;14.40;66.02
55373;BME280;70018;47.838;16.490;2023-09-12T06:09:32;99085.19;;;14.47;65.63
55373;BME280;70018;47.838;16.490;2023-09-12T06:11:58;99093.44;;;14.54;65.88
55373;BME280;70018;47.838;16.490;2023-09-12T06:14:25;99084.47;;;14.63;65.66
55373;BME280;70018;47.838;16.490;2023-09-12T06:16:52;99089.91;;;14.70;65.76
55373;BME280;70018;47.838;16.490;2023-09-12T06:19:20;99085.75;;;14.78;65.46
55373;BME280;70018;47.838;16.490;2023-09-12T06:21:46;99084.41;;;14.86;65.36
55373;BME280;70018;47.838;16.490;2023-09-12T06:24:19;99087.03;;;14.93;65.14
55373;BME280;70018;47.838;16.490;2023-09-12T06:26:50;99088.88;;;15.00;64.97
55373;BME280;70018;47.838;16.490;2023-09-12T06:29:17;99085.16;;;15.06;64.92
55373;BME280;70018;47.838;16.490;2023-09-12T06:31:44;99098.53;;;15.15;64.71
55373;BME280;70018;47.838;16.490;2023-09-12T06:34:10;99088.78;;;15.23;64.60
55373;BME280;70018;47.838;16.490;2023-09-12T06:36:38;99089.41;;;15.30;64.52
55373;BME280;70018;47.838;16.490;2023-09-12T06:39:05;99086.78;;;15.39;64.25
55373;BME280;70018;47.838;16.490;2023-09-12T06:41:32;99093.00;;;15.47;64.21
55373;BME280;70018;47.838;16.490;2023-09-12T06:43:58;99091.19;;;15.57;64.08
55373;BME280;70018;47.838;16.490;2023-09-12T06:46:25;99083.31;;;15.68;63.48
55373;BME280;70018;47.838;16.490;2023-09-12T06:48:52;99089.06;;;15.77;63.47
55373;BME280;70018;47.838;16.490;2023-09-12T06:51:23;99089.69;;;15.84;63.47
55373;BME280;70018;47.838;16.490;2023-09-12T06:53:50;99095.88;;;15.92;63.10
55373;BME280;70018;47.838;16.490;2023-09-12T06:56:17;99093.28;;;16.01;62.97
55373;BME280;70018;47.838;16.490;2023-09-12T06:58:44;99088.34;;;16.05;62.88
55373;BME280;70018;47.838;16.490;2023-09-12T07:01:10;99103.44;;;16.11;62.99
55373;BME280;70018;47.838;16.490;2023-09-12T07:03:37;99104.72;;;16.23;62.97
55373;BME280;70018;47.838;16.490;2023-09-12T07:06:04;99093.22;;;16.33;62.45
55373;BME280;70018;47.838;16.490;2023-09-12T07:08:32;99101.69;;;16.46;62.42
55373;BME280;70018;47.838;16.490;2023-09-12T07:10:59;99093.34;;;16.58;62.09
55373;BME280;70018;47.838;16.490;2023-09-12T07:13:32;99098.53;;;16.72;61.92
55373;BME280;70018;47.838;16.490;2023-09-12T07:15:59;99096.38;;;16.76;61.69
55373;BME280;70018;47.838;16.490;2023-09-12T07:18:26;99103.91;;;16.79;61.68
55373;BME280;70018;47.838;16.490;2023-09-12T07:20:57;99099.25;;;16.89;61.49
55373;BME280;70018;47.838;16.490;2023-09-12T07:23:24;99099.84;;;16.97;61.21
55373;BME280;70018;47.838;16.490;2023-09-12T07:25:50;99097.25;;;17.02;61.17
55373;BME280;70018;47.838;16.490;2023-09-12T07:28:17;99110.19;;;17.12;61.03
55373;BME280;70018;47.838;16.490;2023-09-12T07:30:48;99099.19;;;17.18;60.73
55373;BME280;70018;47.838;16.490;2023-09-12T07:33:14;99106.50;;;17.28;60.76
55373;BME280;70018;47.838;16.490;2023-09-12T07:35:41;99110.66;;;17.36;60.59
55373;BME280;70018;47.838;16.490;2023-09-12T07:38:08;99121.09;;;17.48;60.40
55373;BME280;70018;47.838;16.490;2023-09-12T07:40:34;99117.94;;;17.59;60.20
55373;BME280;70018;47.838;16.490;2023-09-12T07:43:01;99120.44;;;17.69;59.81
55373;BME280;70018;47.838;16.490;2023-09-12T07:45:29;99113.59;;;17.83;59.47
55373;BME280;70018;47.838;16.490;2023-09-12T07:47:57;99119.03;;;17.99;59.18
55373;BME280;70018;47.838;16.490;2023-09-12T07:50:24;99118.22;;;18.11;59.31
55373;BME280;70018;47.838;16.490;2023-09-12T07:52:51;99125.97;;;18.20;59.16
55373;BME280;70018;47.838;16.490;2023-09-12T07:55:17;99124.59;;;18.24;58.77
55373;BME280;70018;47.838;16.490;2023-09-12T07:57:44;99102.81;;;18.28;58.92
55373;BME280;70018;47.838;16.490;2023-09-12T08:00:12;99124.72;;;18.33;58.39
55373;BME280;70018;47.838;16.490;2023-09-12T08:02:38;99117.41;;;18.36;58.86
55373;BME280;70018;47.838;16.490;2023-09-12T08:05:06;99120.22;;;18.36;58.22
55373;BME280;70018;47.838;16.490;2023-09-12T08:07:35;99113.78;;;18.35;58.56
55373;BME280;70018;47.838;16.490;2023-09-12T08:10:02;99113.47;;;18.33;58.49
55373;BME280;70018;47.838;16.490;2023-09-12T08:12:29;99117.50;;;18.32;58.43
55373;BME280;70018;47.838;16.490;2023-09-12T08:14:56;99122.00;;;18.42;58.31
55373;BME280;70018;47.838;16.490;2023-09-12T08:17:23;99113.63;;;18.51;58.52
55373;BME280;70018;47.838;16.490;2023-09-12T08:19:50;99113.91;;;18.66;57.78
55373;BME280;70018;47.838;16.490;2023-09-12T08:22:16;99121.03;;;18.80;57.57
55373;BME280;70018;47.838;16.490;2023-09-12T08:24:43;99116.91;;;18.93;57.76
55373;BME280;70018;47.838;16.490;2023-09-12T08:27:10;99118.53;;;19.03;57.07
55373;BME280;70018;47.838;16.490;2023-09-12T08:29:37;99116.59;;;19.13;57.16
55373;BME280;70018;47.838;16.490;2023-09-12T08:32:04;99122.75;;;19.20;57.02
55373;BME280;70018;47.838;16.490;2023-09-12T08:34:31;99123.69;;;19.26;57.31
55373;BME280;70018;47.838;16.490;2023-09-12T08:36:58;99116.22;;;19.32;56.99
55373;BME280;70018;47.838;16.490;2023-09-12T08:39:27;99124.22;;;19.43;56.64
55373;BME280;70018;47.838;16.490;2023-09-12T08:41:54;99104.91;;;19.54;56.72
55373;BME280;70018;47.838;16.490;2023-09-12T08:44:21;99117.28;;;19.66;56.00
55373;BME280;70018;47.838;16.490;2023-09-12T08:46:48;99122.38;;;19.80;55.82
55373;BME280;70018;47.838;16.490;2023-09-12T08:49:15;99116.28;;;19.90;55.97
55373;BME280;70018;47.838;16.490;2023-09-12T08:51:42;99116.16;;;20.03;55.40
55373;BME280;70018;47.838;16.490;2023-09-12T08:54:09;99123.72;;;20.15;55.37
55373;BME280;70018;47.838;16.490;2023-09-12T08:56:39;99118.41;;;20.26;55.52
55373;BME280;70018;47.838;16.490;2023-09-12T08:59:07;99118.75;;;20.37;55.13
55373;BME280;70018;47.838;16.490;2023-09-12T09:01:35;99124.06;;;20.44;55.20
55373;BME280;70018;47.838;16.490;2023-09-12T09:04:02;99120.97;;;20.51;55.15
55373;BME280;70018;47.838;16.490;2023-09-12T09:06:33;99107.00;;;20.57;54.83
55373;BME280;70018;47.838;16.490;2023-09-12T09:09:05;99114.69;;;20.66;54.61
55373;BME280;70018;47.838;16.490;2023-09-12T09:11:34;99113.09;;;20.74;54.45
55373;BME280;70018;47.838;16.490;2023-09-12T09:14:02;99114.06;;;20.80;54.27
55373;BME280;70018;47.838;16.490;2023-09-12T09:16:31;99110.91;;;20.87;54.01
55373;BME280;70018;47.838;16.490;2023-09-12T09:18:58;99117.00;;;20.94;53.82
55373;BME280;70018;47.838;16.490;2023-09-12T09:21:27;99114.63;;;21.02;53.80
55373;BME280;70018;47.838;16.490;2023-09-12T09:24:01;99106.63;;;21.09;53.52
55373;BME280;70018;47.838;16.490;2023-09-12T09:26:46;99098.63;;;21.17;53.27
55373;BME280;70018;47.838;16.490;2023-09-12T09:29:15;99110.69;;;21.27;53.46
55373;BME280;70018;47.838;16.490;2023-09-12T09:31:47;99102.97;;;21.36;53.00
55373;BME280;70018;47.838;16.490;2023-09-12T09:34:18;99098.53;;;21.44;52.80
55373;BME280;70018;47.838;16.490;2023-09-12T09:36:50;99106.38;;;21.49;52.55
55373;BME280;70018;47.838;16.490;2023-09-12T09:39:20;99101.16;;;21.57;52.50
55373;BME280;70018;47.838;16.490;2023-09-12T09:41:47;99093.41;;;21.66;51.95
55373;BME280;70018;47.838;16.490;2023-09-12T09:44:15;99097.47;;;21.74;51.82
55373;BME280;70018;47.838;16.490;2023-09-12T09:46:46;99092.06;;;21.85;51.86
55373;BME280;70018;47.838;16.490;2023-09-12T09:49:19;99089.97;;;21.95;51.20
55373;BME280;70018;47.838;16.490;2023-09-12T09:51:46;99091.19;;;22.03;51.18
55373;BME280;70018;47.838;16.490;2023-09-12T09:54:14;99087.22;;;22.10;50.96
55373;BME280;70018;47.838;16.490;2023-09-12T09:57:07;99079.34;;;22.14;51.08
55373;BME280;70018;47.838;16.490;2023-09-12T09:59:34;99081.00;;;22.20;50.70
55373;BME280;70018;47.838;16.490;2023-09-12T10:02:00;99084.25;;;22.28;50.80
55373;BME280;70018;47.838;16.490;2023-09-12T10:04:31;99082.03;;;22.32;50.78
55373;BME280;70018;47.838;16.490;2023-09-12T10:07:11;99074.91;;;22.36;50.19
55373;BME280;70018;47.838;16.490;2023-09-12T10:09:39;99089.22;;;22.42;50.13
55373;BME280;70018;47.838;16.490;2023-09-12T10:12:08;99076.91;;;22.45;49.81
55373;BME280;70018;47.838;16.490;2023-09-12T10:14:35;99079.38;;;22.52;49.86
55373;BME280;70018;47.838;16.490;2023-09-12T10:17:05;99075.22;;;22.62;49.73
55373;BME280;70018;47.838;16.490;2023-09-12T10:19:43;99071.00;;;22.72;49.59
55373;BME280;70018;47.838;16.490;2023-09-12T10:22:30;99069.16;;;22.84;49.69
55373;BME280;70018;47.838;16.490;2023-09-12T10:24:59;99071.09;;;22.92;49.50
55373;BME280;70018;47.838;16.490;2023-09-12T10:27:27;99069.16;;;22.98;49.25
55373;BME280;70018;47.838;16.490;2023-09-12T10:29:56;99061.59;;;23.04;48.55
55373;BME280;70018;47.838;16.490;2023-09-12T10:32:27;99056.50;;;23.08;49.07
55373;BME280;70018;47.838;16.490;2023-09-12T10:34:58;99055.53;;;23.12;48.45
55373;BME280;70018;47.838;16.490;2023-09-12T10:37:25;99052.28;;;23.19;48.83
55373;BME280;70018;47.838;16.490;2023-09-12T10:39:55;99053.16;;;23.25;48.69
55373;BME280;70018;47.838;16.490;2023-09-12T10:42:24;99053.53;;;23.32;48.53
55373;BME280;70018;47.838;16.490;2023-09-12T10:44:54;99053.16;;;23.39;47.73
55373;BME280;70018;47.838;16.490;2023-09-12T10:47:21;99044.72;;;23.45;47.72
55373;BME280;70018;47.838;16.490;2023-09-12T10:49:48;99037.09;;;23.51;48.00
55373;BME280;70018;47.838;16.490;2023-09-12T10:52:28;99040.19;;;23.53;47.64
55373;BME280;70018;47.838;16.490;2023-09-12T10:54:56;99040.59;;;23.60;48.03
55373;BME280;70018;47.838;16.490;2023-09-12T10:57:22;99047.63;;;23.65;47.42
55373;BME280;70018;47.838;16.490;2023-09-12T11:02:33;99045.94;;;23.73;47.35
55373;BME280;70018;47.838;16.490;2023-09-12T11:05:03;99038.00;;;23.77;47.26
55373;BME280;70018;47.838;16.490;2023-09-12T11:12:39;99046.03;;;23.99;47.48
55373;BME280;70018;47.838;16.490;2023-09-12T11:15:06;99046.88;;;24.05;46.85
55373;BME280;70018;47.838;16.490;2023-09-12T11:17:46;99041.28;;;24.10;46.82
55373;BME280;70018;47.838;16.490;2023-09-12T11:20:15;99039.28;;;24.16;46.77
55373;BME280;70018;47.838;16.490;2023-09-12T11:22:47;99040.66;;;24.21;46.62
55373;BME280;70018;47.838;16.490;2023-09-12T11:25:21;99040.72;;;24.26;47.14
55373;BME280;70018;47.838;16.490;2023-09-12T11:30:22;99030.50;;;24.34;46.81
55373;BME280;70018;47.838;16.490;2023-09-12T11:32:51;99026.94;;;24.40;46.44
55373;BME280;70018;47.838;16.490;2023-09-12T11:35:25;99028.28;;;24.44;46.66
55373;BME280;70018;47.838;16.490;2023-09-12T11:37:57;99035.31;;;24.49;46.29
55373;BME280;70018;47.838;16.490;2023-09-12T11:43:00;99023.00;;;24.57;45.92
55373;BME280;70018;47.838;16.490;2023-09-12T11:45:27;99015.53;;;24.60;46.11
55373;BME280;70018;47.838;16.490;2023-09-12T11:47:57;99015.59;;;24.65;46.45
55373;BME280;70018;47.838;16.490;2023-09-12T11:53:05;99015.25;;;24.78;46.19
55373;BME280;70018;47.838;16.490;2023-09-12T11:55:53;99001.59;;;24.82;45.75
55373;BME280;70018;47.838;16.490;2023-09-12T11:58:21;99007.03;;;24.85;45.49
55373;BME280;70018;47.838;16.490;2023-09-12T12:00:50;99004.00;;;24.89;45.99
55373;BME280;70018;47.838;16.490;2023-09-12T12:03:20;98999.38;;;24.97;45.46
55373;BME280;70018;47.838;16.490;2023-09-12T12:05:47;98997.91;;;25.02;45.33
55373;BME280;70018;47.838;16.490;2023-09-12T12:08:16;98994.03;;;25.05;45.76
55373;BME280;70018;47.838;16.490;2023-09-12T12:10:57;98987.06;;;25.06;44.92
55373;BME280;70018;47.838;16.490;2023-09-12T12:13:27;98991.75;;;25.09;45.18
55373;BME280;70018;47.838;16.490;2023-09-12T12:15:55;98990.72;;;25.12;45.35
55373;BME280;70018;47.838;16.490;2023-09-12T12:18:23;98991.03;;;25.14;45.32
55373;BME280;70018;47.838;16.490;2023-09-12T12:20:50;98987.16;;;25.17;45.16
55373;BME280;70018;47.838;16.490;2023-09-12T12:23:17;98990.81;;;25.23;45.08
55373;BME280;70018;47.838;16.490;2023-09-12T12:25:43;98976.66;;;25.28;44.81
55373;BME280;70018;47.838;16.490;2023-09-12T12:28:10;98975.66;;;25.31;44.80
55373;BME280;70018;47.838;16.490;2023-09-12T12:30:37;98975.66;;;25.31;44.50
55373;BME280;70018;47.838;16.490;2023-09-12T12:33:08;98971.31;;;25.36;44.45
55373;BME280;70018;47.838;16.490;2023-09-12T12:36:13;98970.78;;;25.37;44.51
55373;BME280;70018;47.838;16.490;2023-09-12T12:38:40;98970.03;;;25.42;44.29
55373;BME280;70018;47.838;16.490;2023-09-12T12:41:28;98959.25;;;25.46;44.32
55373;BME280;70018;47.838;16.490;2023-09-12T12:44:11;98957.72;;;25.51;44.27
55373;BME280;70018;47.838;16.490;2023-09-12T12:46:53;98960.53;;;25.51;44.06
55373;BME280;70018;47.838;16.490;2023-09-12T12:49:21;98957.19;;;25.52;43.91
55373;BME280;70018;47.838;16.490;2023-09-12T12:51:48;98956.97;;;25.56;43.87
55373;BME280;70018;47.838;16.490;2023-09-12T12:54:15;98956.97;;;25.61;44.01
55373;BME280;70018;47.838;16.490;2023-09-12T12:56:43;98949.47;;;25.64;43.95
55373;BME280;70018;47.838;16.490;2023-09-12T12:59:12;98960.88;;;25.70;44.08
55373;BME280;70018;47.838;16.490;2023-09-12T13:01:39;98952.91;;;25.74;44.05
55373;BME280;70018;47.838;16.490;2023-09-12T13:04:08;98944.13;;;25.77;43.56
55373;BME280;70018;47.838;16.490;2023-09-12T13:06:35;98944.38;;;25.79;43.65
55373;BME280;70018;47.838;16.490;2023-09-12T13:09:04;98949.56;;;25.81;43.73
55373;BME280;70018;47.838;16.490;2023-09-12T13:11:32;98946.22;;;25.82;43.42
55373;BME280;70018;47.838;16.490;2023-09-12T13:14:02;98944.16;;;25.83;43.32
55373;BME280;70018;47.838;16.490;2023-09-12T13:16:38;98944.41;;;25.85;43.47